PMDY METAR and TAF weather

Enter ICAO airport designator
Station Type Date Time Source
PMDY METAR 2018/12/19 02:56 UTC NOAA

PMDY 190256Z AUTO 15009KT 10SM SCT033 21/13 A3036 RMK AO2 SLP282 T02110133 56011


Station Type Date Time Source
PMDY Decoded METAR 2018/12/19 02:56 UTC NOAA

Sand Island, Henderson Field Airport, HI, United States (PMDY) 28-13N 177-22W 6M
Dec 18, 2018 - 09:56 PM EST / 2018.12.19 0256 UTC
Wind: from the SSE (150 degrees) at 10 MPH (9 KT):0
Visibility: 10 mile(s):0
Sky conditions: partly cloudy
Temperature: 70.0 F (21.1 C)
Dew Point: 55.9 F (13.3 C)
Relative Humidity: 61%
Pressure (altimeter): 30.36 in. Hg (1028 hPa)
Pressure tendency: 0.03 inches (1.1 hPa) lower than three hours ago
ob: PMDY 190256Z AUTO 15009KT 10SM SCT033 21/13 A3036 RMK AO2 SLP282 T02110133 56011
cycle: 3

Station Type Date Time Source
PMDY TAF 2018/12/18 18:33 UTC NOAA

TAF PMDY 181730Z 1818/1918 08013KT P6SM BKN035
FM182100 12012KT P6SM SCT035
FM190300 16012KT P6SM SCT035


Example: see airport list